Andrew, Iowa
Current Conditions -  °F | °C
As of 5:05 PM on Saturday 20 Dec 2014 (Local Time) from KDBQ Reporting Station
Haze Haze  
Wind Chill: 23°   Ceiling: 1000
Heat Index: 30°   Visibility: 5mi
Dew Point: 26°   Wind: 7mph
Humidity: 85%   Direction: 160°SSE
Pressure: 30.19"   Gusts: NA
Location:  42.15°N, 90.59°W
Report Text: KDBQ 202305Z 16006KT 5SM BR OVC010 M01/M03 A3019 RMK AO2 T10111033
Loading
Personal Weather Stations






























Interactive Weather Map New forecast layout! Learn more

10-Day Weather Forecast

Advertisements
Track Severe Weather on mobile